sensor_id;sensor_type;location;lat;lon;timestamp;P1;durP1;ratioP1;P2;durP2;ratioP2
6438;SDS011;3252;52.540;13.290;2023-04-24T00:00:18;4.90;;;3.53;;
6438;SDS011;3252;52.540;13.290;2023-04-24T00:02:20;4.67;;;3.50;;
6438;SDS011;3252;52.540;13.290;2023-04-24T00:04:24;4.97;;;3.07;;
6438;SDS011;3252;52.540;13.290;2023-04-24T00:06:27;3.83;;;3.30;;
6438;SDS011;3252;52.540;13.290;2023-04-24T00:08:33;4.03;;;3.43;;
6438;SDS011;3252;52.540;13.290;2023-04-24T00:10:36;5.70;;;3.37;;
6438;SDS011;3252;52.540;13.290;2023-04-24T00:12:38;7.67;;;3.60;;
6438;SDS011;3252;52.540;13.290;2023-04-24T00:14:40;7.10;;;3.23;;
6438;SDS011;3252;52.540;13.290;2023-04-24T00:16:42;4.40;;;3.70;;
6438;SDS011;3252;52.540;13.290;2023-04-24T00:18:44;10.17;;;3.90;;
6438;SDS011;3252;52.540;13.290;2023-04-24T00:20:49;4.50;;;3.50;;
6438;SDS011;3252;52.540;13.290;2023-04-24T00:22:51;4.30;;;3.47;;
6438;SDS011;3252;52.540;13.290;2023-04-24T00:24:53;6.40;;;3.60;;
6438;SDS011;3252;52.540;13.290;2023-04-24T00:26:56;3.73;;;3.33;;
6438;SDS011;3252;52.540;13.290;2023-04-24T00:28:58;6.33;;;3.80;;
6438;SDS011;3252;52.540;13.290;2023-04-24T00:31:01;3.53;;;3.23;;
6438;SDS011;3252;52.540;13.290;2023-04-24T00:33:03;3.83;;;3.43;;
6438;SDS011;3252;52.540;13.290;2023-04-24T00:35:06;5.50;;;3.73;;
6438;SDS011;3252;52.540;13.290;2023-04-24T00:37:10;5.37;;;3.60;;
6438;SDS011;3252;52.540;13.290;2023-04-24T00:39:12;3.90;;;3.03;;
6438;SDS011;3252;52.540;13.290;2023-04-24T00:41:14;4.83;;;3.37;;
6438;SDS011;3252;52.540;13.290;2023-04-24T00:43:17;4.47;;;3.50;;
6438;SDS011;3252;52.540;13.290;2023-04-24T00:45:19;5.43;;;3.47;;
6438;SDS011;3252;52.540;13.290;2023-04-24T00:47:22;3.63;;;3.27;;
6438;SDS011;3252;52.540;13.290;2023-04-24T00:49:25;4.13;;;3.40;;
6438;SDS011;3252;52.540;13.290;2023-04-24T00:51:27;4.43;;;3.60;;
6438;SDS011;3252;52.540;13.290;2023-04-24T00:53:32;4.83;;;3.47;;
6438;SDS011;3252;52.540;13.290;2023-04-24T00:55:34;6.60;;;3.77;;
6438;SDS011;3252;52.540;13.290;2023-04-24T00:57:38;4.63;;;3.80;;
6438;SDS011;3252;52.540;13.290;2023-04-24T00:59:41;4.13;;;3.47;;
6438;SDS011;3252;52.540;13.290;2023-04-24T01:01:43;6.37;;;3.40;;
6438;SDS011;3252;52.540;13.290;2023-04-24T01:03:46;6.10;;;3.50;;
6438;SDS011;3252;52.540;13.290;2023-04-24T01:05:50;4.40;;;3.43;;
6438;SDS011;3252;52.540;13.290;2023-04-24T01:07:52;4.70;;;3.50;;
6438;SDS011;3252;52.540;13.290;2023-04-24T01:09:56;6.87;;;3.50;;
6438;SDS011;3252;52.540;13.290;2023-04-24T01:11:59;6.17;;;3.60;;
6438;SDS011;3252;52.540;13.290;2023-04-24T01:14:01;4.47;;;3.37;;
6438;SDS011;3252;52.540;13.290;2023-04-24T01:16:04;3.93;;;3.40;;
6438;SDS011;3252;52.540;13.290;2023-04-24T01:18:08;4.87;;;3.30;;
6438;SDS011;3252;52.540;13.290;2023-04-24T01:20:10;5.27;;;3.43;;
6438;SDS011;3252;52.540;13.290;2023-04-24T01:22:16;4.23;;;3.33;;
6438;SDS011;3252;52.540;13.290;2023-04-24T01:24:19;5.13;;;3.67;;
6438;SDS011;3252;52.540;13.290;2023-04-24T01:26:21;4.83;;;3.30;;
6438;SDS011;3252;52.540;13.290;2023-04-24T01:28:23;4.47;;;3.87;;
6438;SDS011;3252;52.540;13.290;2023-04-24T01:30:26;5.50;;;3.80;;
6438;SDS011;3252;52.540;13.290;2023-04-24T01:32:28;4.23;;;3.80;;
6438;SDS011;3252;52.540;13.290;2023-04-24T01:34:31;7.63;;;3.80;;
6438;SDS011;3252;52.540;13.290;2023-04-24T01:36:33;5.07;;;3.97;;
6438;SDS011;3252;52.540;13.290;2023-04-24T01:38:38;5.17;;;3.70;;
6438;SDS011;3252;52.540;13.290;2023-04-24T01:40:40;5.90;;;3.80;;
6438;SDS011;3252;52.540;13.290;2023-04-24T01:42:42;4.40;;;3.80;;
6438;SDS011;3252;52.540;13.290;2023-04-24T01:44:45;5.73;;;4.00;;
6438;SDS011;3252;52.540;13.290;2023-04-24T01:46:48;4.47;;;3.90;;
6438;SDS011;3252;52.540;13.290;2023-04-24T01:48:50;4.73;;;3.90;;
6438;SDS011;3252;52.540;13.290;2023-04-24T01:50:55;4.80;;;4.13;;
6438;SDS011;3252;52.540;13.290;2023-04-24T01:52:58;5.57;;;4.20;;
6438;SDS011;3252;52.540;13.290;2023-04-24T01:55:01;5.20;;;4.40;;
6438;SDS011;3252;52.540;13.290;2023-04-24T01:57:04;5.37;;;4.60;;
6438;SDS011;3252;52.540;13.290;2023-04-24T01:59:06;6.27;;;4.37;;
6438;SDS011;3252;52.540;13.290;2023-04-24T02:01:14;5.60;;;3.90;;
6438;SDS011;3252;52.540;13.290;2023-04-24T02:03:21;4.87;;;3.90;;
6438;SDS011;3252;52.540;13.290;2023-04-24T02:05:23;4.77;;;4.10;;
6438;SDS011;3252;52.540;13.290;2023-04-24T02:07:26;5.37;;;3.87;;
6438;SDS011;3252;52.540;13.290;2023-04-24T02:09:28;4.47;;;3.77;;
6438;SDS011;3252;52.540;13.290;2023-04-24T02:11:31;5.00;;;4.20;;
6438;SDS011;3252;52.540;13.290;2023-04-24T02:13:34;9.40;;;4.37;;
6438;SDS011;3252;52.540;13.290;2023-04-24T02:15:36;6.30;;;4.17;;
6438;SDS011;3252;52.540;13.290;2023-04-24T02:17:38;5.10;;;4.30;;
6438;SDS011;3252;52.540;13.290;2023-04-24T02:19:40;9.17;;;4.10;;
6438;SDS011;3252;52.540;13.290;2023-04-24T02:21:44;5.80;;;4.20;;
6438;SDS011;3252;52.540;13.290;2023-04-24T02:23:46;4.40;;;4.00;;
6438;SDS011;3252;52.540;13.290;2023-04-24T02:25:48;6.53;;;4.27;;
6438;SDS011;3252;52.540;13.290;2023-04-24T02:27:52;4.33;;;3.83;;
6438;SDS011;3252;52.540;13.290;2023-04-24T02:29:55;5.27;;;3.93;;
6438;SDS011;3252;52.540;13.290;2023-04-24T02:31:57;4.47;;;4.07;;
6438;SDS011;3252;52.540;13.290;2023-04-24T02:33:59;5.03;;;4.30;;
6438;SDS011;3252;52.540;13.290;2023-04-24T02:36:01;8.63;;;4.87;;
6438;SDS011;3252;52.540;13.290;2023-04-24T02:38:04;6.13;;;4.70;;
6438;SDS011;3252;52.540;13.290;2023-04-24T02:40:07;5.20;;;4.70;;
6438;SDS011;3252;52.540;13.290;2023-04-24T02:42:10;5.67;;;4.43;;
6438;SDS011;3252;52.540;13.290;2023-04-24T02:44:13;5.30;;;4.77;;
6438;SDS011;3252;52.540;13.290;2023-04-24T02:46:17;5.30;;;4.80;;
6438;SDS011;3252;52.540;13.290;2023-04-24T02:48:19;5.10;;;4.60;;
6438;SDS011;3252;52.540;13.290;2023-04-24T02:50:22;5.00;;;4.60;;
6438;SDS011;3252;52.540;13.290;2023-04-24T02:52:24;5.20;;;4.70;;
6438;SDS011;3252;52.540;13.290;2023-04-24T02:54:26;5.70;;;5.13;;
6438;SDS011;3252;52.540;13.290;2023-04-24T02:56:28;4.80;;;4.40;;
6438;SDS011;3252;52.540;13.290;2023-04-24T02:58:32;6.07;;;4.77;;
6438;SDS011;3252;52.540;13.290;2023-04-24T03:00:37;6.83;;;4.63;;
6438;SDS011;3252;52.540;13.290;2023-04-24T03:02:40;4.90;;;4.40;;
6438;SDS011;3252;52.540;13.290;2023-04-24T03:04:42;7.70;;;4.33;;
6438;SDS011;3252;52.540;13.290;2023-04-24T03:06:46;4.70;;;4.30;;
6438;SDS011;3252;52.540;13.290;2023-04-24T03:08:48;6.50;;;4.70;;
6438;SDS011;3252;52.540;13.290;2023-04-24T03:10:50;6.07;;;5.03;;
6438;SDS011;3252;52.540;13.290;2023-04-24T03:12:52;4.87;;;4.37;;
6438;SDS011;3252;52.540;13.290;2023-04-24T03:14:55;5.43;;;4.33;;
6438;SDS011;3252;52.540;13.290;2023-04-24T03:16:58;5.33;;;4.70;;
6438;SDS011;3252;52.540;13.290;2023-04-24T03:19:01;4.63;;;4.07;;
6438;SDS011;3252;52.540;13.290;2023-04-24T03:21:06;4.77;;;4.10;;
6438;SDS011;3252;52.540;13.290;2023-04-24T03:23:09;6.93;;;4.40;;
6438;SDS011;3252;52.540;13.290;2023-04-24T03:25:12;6.13;;;3.93;;
6438;SDS011;3252;52.540;13.290;2023-04-24T03:27:14;5.90;;;4.80;;
6438;SDS011;3252;52.540;13.290;2023-04-24T03:29:24;4.87;;;4.30;;
6438;SDS011;3252;52.540;13.290;2023-04-24T03:31:27;5.43;;;4.77;;
6438;SDS011;3252;52.540;13.290;2023-04-24T03:33:30;4.83;;;4.30;;
6438;SDS011;3252;52.540;13.290;2023-04-24T03:35:35;7.10;;;4.77;;
6438;SDS011;3252;52.540;13.290;2023-04-24T03:37:41;5.93;;;4.57;;
6438;SDS011;3252;52.540;13.290;2023-04-24T03:40:04;5.03;;;4.47;;
6438;SDS011;3252;52.540;13.290;2023-04-24T03:42:09;5.50;;;4.60;;
6438;SDS011;3252;52.540;13.290;2023-04-24T03:44:22;5.33;;;4.40;;
6438;SDS011;3252;52.540;13.290;2023-04-24T03:46:25;5.20;;;4.70;;
6438;SDS011;3252;52.540;13.290;2023-04-24T03:48:33;5.63;;;4.70;;
6438;SDS011;3252;52.540;13.290;2023-04-24T03:50:35;5.83;;;4.57;;
6438;SDS011;3252;52.540;13.290;2023-04-24T03:52:38;9.00;;;4.90;;
6438;SDS011;3252;52.540;13.290;2023-04-24T03:54:42;5.03;;;4.43;;
6438;SDS011;3252;52.540;13.290;2023-04-24T03:56:45;5.97;;;4.80;;
6438;SDS011;3252;52.540;13.290;2023-04-24T03:58:48;5.00;;;4.23;;
6438;SDS011;3252;52.540;13.290;2023-04-24T04:00:50;6.00;;;4.80;;
6438;SDS011;3252;52.540;13.290;2023-04-24T04:03:11;5.23;;;4.23;;
6438;SDS011;3252;52.540;13.290;2023-04-24T04:05:16;5.03;;;4.37;;
6438;SDS011;3252;52.540;13.290;2023-04-24T04:07:19;7.27;;;4.70;;
6438;SDS011;3252;52.540;13.290;2023-04-24T04:09:21;6.57;;;4.50;;
6438;SDS011;3252;52.540;13.290;2023-04-24T04:11:23;6.13;;;4.40;;
6438;SDS011;3252;52.540;13.290;2023-04-24T04:13:26;6.37;;;4.60;;
6438;SDS011;3252;52.540;13.290;2023-04-24T04:15:28;7.33;;;4.60;;
6438;SDS011;3252;52.540;13.290;2023-04-24T04:17:30;9.47;;;8.37;;
6438;SDS011;3252;52.540;13.290;2023-04-24T04:19:35;10.47;;;8.67;;
6438;SDS011;3252;52.540;13.290;2023-04-24T04:21:38;10.20;;;6.40;;
6438;SDS011;3252;52.540;13.290;2023-04-24T04:23:52;22.50;;;19.03;;
6438;SDS011;3252;52.540;13.290;2023-04-24T04:26:00;12.00;;;9.83;;
6438;SDS011;3252;52.540;13.290;2023-04-24T04:28:14;6.77;;;5.20;;
6438;SDS011;3252;52.540;13.290;2023-04-24T04:30:16;5.40;;;4.30;;
6438;SDS011;3252;52.540;13.290;2023-04-24T04:32:29;6.23;;;4.30;;
6438;SDS011;3252;52.540;13.290;2023-04-24T04:34:31;8.87;;;4.40;;
6438;SDS011;3252;52.540;13.290;2023-04-24T04:36:34;5.47;;;4.70;;
6438;SDS011;3252;52.540;13.290;2023-04-24T04:38:50;7.03;;;4.47;;
6438;SDS011;3252;52.540;13.290;2023-04-24T04:41:18;5.73;;;4.90;;
6438;SDS011;3252;52.540;13.290;2023-04-24T04:43:21;5.27;;;4.77;;
6438;SDS011;3252;52.540;13.290;2023-04-24T04:45:26;6.03;;;4.90;;
6438;SDS011;3252;52.540;13.290;2023-04-24T04:47:48;5.30;;;4.60;;
6438;SDS011;3252;52.540;13.290;2023-04-24T04:49:51;5.37;;;4.87;;
6438;SDS011;3252;52.540;13.290;2023-04-24T04:51:56;17.37;;;14.70;;
6438;SDS011;3252;52.540;13.290;2023-04-24T04:54:01;10.77;;;9.27;;
6438;SDS011;3252;52.540;13.290;2023-04-24T04:56:04;7.80;;;5.40;;
6438;SDS011;3252;52.540;13.290;2023-04-24T04:58:11;6.77;;;4.73;;
6438;SDS011;3252;52.540;13.290;2023-04-24T05:00:13;5.43;;;4.40;;
6438;SDS011;3252;52.540;13.290;2023-04-24T05:02:22;4.37;;;3.90;;
6438;SDS011;3252;52.540;13.290;2023-04-24T05:04:24;5.70;;;4.07;;
6438;SDS011;3252;52.540;13.290;2023-04-24T05:06:27;6.37;;;3.87;;
6438;SDS011;3252;52.540;13.290;2023-04-24T05:08:29;5.97;;;4.10;;
6438;SDS011;3252;52.540;13.290;2023-04-24T05:10:33;4.83;;;3.80;;
6438;SDS011;3252;52.540;13.290;2023-04-24T05:12:38;7.23;;;4.47;;
6438;SDS011;3252;52.540;13.290;2023-04-24T05:14:41;8.33;;;3.83;;
6438;SDS011;3252;52.540;13.290;2023-04-24T05:16:44;5.93;;;3.60;;
6438;SDS011;3252;52.540;13.290;2023-04-24T05:18:48;8.13;;;3.80;;
6438;SDS011;3252;52.540;13.290;2023-04-24T05:20:54;8.60;;;3.97;;
6438;SDS011;3252;52.540;13.290;2023-04-24T05:22:57;5.90;;;3.67;;
6438;SDS011;3252;52.540;13.290;2023-04-24T05:25:01;10.30;;;3.67;;
6438;SDS011;3252;52.540;13.290;2023-04-24T05:27:28;6.20;;;3.80;;
6438;SDS011;3252;52.540;13.290;2023-04-24T05:29:30;5.67;;;4.07;;
6438;SDS011;3252;52.540;13.290;2023-04-24T05:31:33;6.53;;;3.43;;
6438;SDS011;3252;52.540;13.290;2023-04-24T05:33:35;7.80;;;3.83;;
6438;SDS011;3252;52.540;13.290;2023-04-24T05:35:37;4.23;;;3.33;;
6438;SDS011;3252;52.540;13.290;2023-04-24T05:37:46;3.70;;;3.27;;
6438;SDS011;3252;52.540;13.290;2023-04-24T05:39:48;3.37;;;2.93;;
6438;SDS011;3252;52.540;13.290;2023-04-24T05:41:51;3.27;;;2.73;;
6438;SDS011;3252;52.540;13.290;2023-04-24T05:43:54;4.67;;;2.90;;
6438;SDS011;3252;52.540;13.290;2023-04-24T05:45:56;7.50;;;3.00;;
6438;SDS011;3252;52.540;13.290;2023-04-24T05:47:59;3.97;;;2.67;;
6438;SDS011;3252;52.540;13.290;2023-04-24T05:50:01;3.37;;;2.70;;
6438;SDS011;3252;52.540;13.290;2023-04-24T05:52:04;4.87;;;2.40;;
6438;SDS011;3252;52.540;13.290;2023-04-24T05:54:09;2.73;;;2.43;;
6438;SDS011;3252;52.540;13.290;2023-04-24T05:56:12;9.43;;;4.10;;
6438;SDS011;3252;52.540;13.290;2023-04-24T05:58:15;4.23;;;2.37;;
6438;SDS011;3252;52.540;13.290;2023-04-24T06:00:19;2.90;;;2.20;;
6438;SDS011;3252;52.540;13.290;2023-04-24T06:02:31;3.73;;;2.67;;
6438;SDS011;3252;52.540;13.290;2023-04-24T06:04:34;7.83;;;4.27;;
6438;SDS011;3252;52.540;13.290;2023-04-24T06:06:36;3.17;;;2.03;;
6438;SDS011;3252;52.540;13.290;2023-04-24T06:08:38;4.90;;;1.87;;
6438;SDS011;3252;52.540;13.290;2023-04-24T06:10:40;3.40;;;1.90;;
6438;SDS011;3252;52.540;13.290;2023-04-24T06:12:44;1.83;;;1.63;;
6438;SDS011;3252;52.540;13.290;2023-04-24T06:14:50;3.20;;;1.50;;
6438;SDS011;3252;52.540;13.290;2023-04-24T06:17:02;3.53;;;1.97;;
6438;SDS011;3252;52.540;13.290;2023-04-24T06:19:10;2.93;;;1.63;;
6438;SDS011;3252;52.540;13.290;2023-04-24T06:21:12;3.67;;;1.50;;
6438;SDS011;3252;52.540;13.290;2023-04-24T06:23:14;4.10;;;1.70;;
6438;SDS011;3252;52.540;13.290;2023-04-24T06:25:16;7.63;;;1.40;;
6438;SDS011;3252;52.540;13.290;2023-04-24T06:27:19;1.77;;;1.30;;
6438;SDS011;3252;52.540;13.290;2023-04-24T06:29:21;3.93;;;1.40;;
6438;SDS011;3252;52.540;13.290;2023-04-24T06:31:24;3.37;;;1.30;;
6438;SDS011;3252;52.540;13.290;2023-04-24T06:33:29;3.27;;;1.70;;
6438;SDS011;3252;52.540;13.290;2023-04-24T06:35:32;5.13;;;1.30;;
6438;SDS011;3252;52.540;13.290;2023-04-24T06:37:35;11.37;;;6.50;;
6438;SDS011;3252;52.540;13.290;2023-04-24T06:39:37;6.43;;;2.90;;
6438;SDS011;3252;52.540;13.290;2023-04-24T06:41:40;1.67;;;1.20;;
6438;SDS011;3252;52.540;13.290;2023-04-24T06:43:50;2.93;;;1.30;;
6438;SDS011;3252;52.540;13.290;2023-04-24T06:45:52;2.33;;;1.13;;
6438;SDS011;3252;52.540;13.290;2023-04-24T06:47:54;2.43;;;1.00;;
6438;SDS011;3252;52.540;13.290;2023-04-24T06:49:58;2.40;;;1.10;;
6438;SDS011;3252;52.540;13.290;2023-04-24T06:52:00;3.13;;;0.80;;
6438;SDS011;3252;52.540;13.290;2023-04-24T06:54:02;1.47;;;0.97;;
6438;SDS011;3252;52.540;13.290;2023-04-24T06:56:05;1.93;;;1.00;;
6438;SDS011;3252;52.540;13.290;2023-04-24T06:58:07;2.17;;;0.90;;
6438;SDS011;3252;52.540;13.290;2023-04-24T07:00:09;1.97;;;1.10;;
6438;SDS011;3252;52.540;13.290;2023-04-24T07:02:12;3.90;;;1.00;;
6438;SDS011;3252;52.540;13.290;2023-04-24T07:04:15;2.70;;;1.10;;
6438;SDS011;3252;52.540;13.290;2023-04-24T07:06:18;2.70;;;0.97;;
6438;SDS011;3252;52.540;13.290;2023-04-24T07:08:22;3.00;;;1.10;;
6438;SDS011;3252;52.540;13.290;2023-04-24T07:10:25;2.23;;;0.90;;
6438;SDS011;3252;52.540;13.290;2023-04-24T07:12:28;0.83;;;0.70;;
6438;SDS011;3252;52.540;13.290;2023-04-24T07:14:31;1.63;;;0.77;;
6438;SDS011;3252;52.540;13.290;2023-04-24T07:16:33;1.77;;;0.70;;
6438;SDS011;3252;52.540;13.290;2023-04-24T07:18:35;1.20;;;0.60;;
6438;SDS011;3252;52.540;13.290;2023-04-24T07:20:39;1.77;;;0.80;;
6438;SDS011;3252;52.540;13.290;2023-04-24T07:22:43;1.93;;;1.10;;
6438;SDS011;3252;52.540;13.290;2023-04-24T07:24:45;1.33;;;0.70;;
6438;SDS011;3252;52.540;13.290;2023-04-24T07:26:47;1.57;;;0.83;;
6438;SDS011;3252;52.540;13.290;2023-04-24T07:28:51;1.57;;;0.80;;
6438;SDS011;3252;52.540;13.290;2023-04-24T07:30:54;3.07;;;0.97;;
6438;SDS011;3252;52.540;13.290;2023-04-24T07:32:56;1.87;;;0.70;;
6438;SDS011;3252;52.540;13.290;2023-04-24T07:34:58;2.03;;;0.83;;
6438;SDS011;3252;52.540;13.290;2023-04-24T07:37:00;2.47;;;1.80;;
6438;SDS011;3252;52.540;13.290;2023-04-24T07:39:04;1.17;;;0.90;;
6438;SDS011;3252;52.540;13.290;2023-04-24T07:41:07;5.67;;;2.50;;
6438;SDS011;3252;52.540;13.290;2023-04-24T07:43:09;2.40;;;0.77;;
6438;SDS011;3252;52.540;13.290;2023-04-24T07:45:11;0.50;;;0.50;;
6438;SDS011;3252;52.540;13.290;2023-04-24T07:47:14;0.88;;;0.68;;
6438;SDS011;3252;52.540;13.290;2023-04-24T07:49:17;0.73;;;0.60;;
6438;SDS011;3252;52.540;13.290;2023-04-24T07:51:19;1.23;;;0.73;;
6438;SDS011;3252;52.540;13.290;2023-04-24T07:53:21;2.10;;;0.80;;
6438;SDS011;3252;52.540;13.290;2023-04-24T07:55:24;1.13;;;0.80;;
6438;SDS011;3252;52.540;13.290;2023-04-24T07:57:26;2.17;;;1.42;;
6438;SDS011;3252;52.540;13.290;2023-04-24T07:59:29;1.65;;;1.00;;
6438;SDS011;3252;52.540;13.290;2023-04-24T08:01:31;2.22;;;1.60;;
6438;SDS011;3252;52.540;13.290;2023-04-24T08:03:33;1.50;;;0.70;;
6438;SDS011;3252;52.540;13.290;2023-04-24T08:05:38;0.60;;;0.50;;
6438;SDS011;3252;52.540;13.290;2023-04-24T08:07:40;3.35;;;0.60;;
6438;SDS011;3252;52.540;13.290;2023-04-24T08:09:43;1.25;;;0.70;;
6438;SDS011;3252;52.540;13.290;2023-04-24T08:11:47;1.38;;;0.60;;
6438;SDS011;3252;52.540;13.290;2023-04-24T08:13:49;1.05;;;0.50;;
6438;SDS011;3252;52.540;13.290;2023-04-24T08:15:51;1.17;;;0.60;;
6438;SDS011;3252;52.540;13.290;2023-04-24T08:17:53;2.60;;;0.70;;
6438;SDS011;3252;52.540;13.290;2023-04-24T08:19:55;1.83;;;0.90;;
6438;SDS011;3252;52.540;13.290;2023-04-24T08:22:01;1.35;;;1.00;;
6438;SDS011;3252;52.540;13.290;2023-04-24T08:24:04;2.53;;;0.80;;
6438;SDS011;3252;52.540;13.290;2023-04-24T08:26:08;1.70;;;0.70;;
6438;SDS011;3252;52.540;13.290;2023-04-24T08:28:12;1.50;;;0.70;;
6438;SDS011;3252;52.540;13.290;2023-04-24T08:30:20;2.53;;;0.90;;
6438;SDS011;3252;52.540;13.290;2023-04-24T08:32:22;1.50;;;0.77;;
6438;SDS011;3252;52.540;13.290;2023-04-24T08:34:24;2.70;;;0.90;;
6438;SDS011;3252;52.540;13.290;2023-04-24T08:36:27;1.98;;;0.80;;
6438;SDS011;3252;52.540;13.290;2023-04-24T08:38:30;1.93;;;0.90;;
6438;SDS011;3252;52.540;13.290;2023-04-24T08:40:33;1.27;;;0.80;;
6438;SDS011;3252;52.540;13.290;2023-04-24T08:42:36;1.60;;;1.10;;
6438;SDS011;3252;52.540;13.290;2023-04-24T08:44:40;1.05;;;0.73;;
6438;SDS011;3252;52.540;13.290;2023-04-24T08:46:43;2.80;;;1.60;;
6438;SDS011;3252;52.540;13.290;2023-04-24T08:48:47;1.40;;;0.90;;
6438;SDS011;3252;52.540;13.290;2023-04-24T08:50:50;1.27;;;0.70;;
6438;SDS011;3252;52.540;13.290;2023-04-24T08:52:52;1.63;;;0.80;;
6438;SDS011;3252;52.540;13.290;2023-04-24T08:54:55;2.65;;;1.10;;
6438;SDS011;3252;52.540;13.290;2023-04-24T08:56:58;2.08;;;0.77;;
6438;SDS011;3252;52.540;13.290;2023-04-24T08:59:01;2.20;;;1.30;;
6438;SDS011;3252;52.540;13.290;2023-04-24T09:01:05;1.23;;;0.80;;
6438;SDS011;3252;52.540;13.290;2023-04-24T09:03:08;0.80;;;0.67;;
6438;SDS011;3252;52.540;13.290;2023-04-24T09:05:11;1.67;;;0.90;;
6438;SDS011;3252;52.540;13.290;2023-04-24T09:07:15;1.80;;;0.70;;
6438;SDS011;3252;52.540;13.290;2023-04-24T09:09:18;1.40;;;0.70;;
6438;SDS011;3252;52.540;13.290;2023-04-24T09:11:21;1.47;;;0.70;;
6438;SDS011;3252;52.540;13.290;2023-04-24T09:13:24;0.83;;;0.70;;
6438;SDS011;3252;52.540;13.290;2023-04-24T09:15:27;2.27;;;0.93;;
6438;SDS011;3252;52.540;13.290;2023-04-24T09:17:32;1.93;;;0.70;;
6438;SDS011;3252;52.540;13.290;2023-04-24T09:19:35;1.83;;;0.73;;
6438;SDS011;3252;52.540;13.290;2023-04-24T09:21:38;1.97;;;0.70;;
6438;SDS011;3252;52.540;13.290;2023-04-24T09:23:42;1.37;;;0.60;;
6438;SDS011;3252;52.540;13.290;2023-04-24T09:25:45;1.90;;;0.70;;
6438;SDS011;3252;52.540;13.290;2023-04-24T09:27:47;2.00;;;0.70;;
6438;SDS011;3252;52.540;13.290;2023-04-24T09:29:55;1.63;;;0.80;;
6438;SDS011;3252;52.540;13.290;2023-04-24T09:31:58;0.73;;;0.70;;
6438;SDS011;3252;52.540;13.290;2023-04-24T09:34:22;1.88;;;0.70;;
6438;SDS011;3252;52.540;13.290;2023-04-24T09:36:29;2.60;;;0.95;;
6438;SDS011;3252;52.540;13.290;2023-04-24T09:38:34;2.97;;;0.90;;
6438;SDS011;3252;52.540;13.290;2023-04-24T09:40:37;3.20;;;1.00;;
6438;SDS011;3252;52.540;13.290;2023-04-24T09:42:43;1.80;;;0.67;;
6438;SDS011;3252;52.540;13.290;2023-04-24T09:44:46;1.93;;;0.73;;
6438;SDS011;3252;52.540;13.290;2023-04-24T09:46:53;2.60;;;1.00;;
6438;SDS011;3252;52.540;13.290;2023-04-24T09:48:56;3.77;;;0.90;;
6438;SDS011;3252;52.540;13.290;2023-04-24T09:51:00;2.93;;;1.00;;
6438;SDS011;3252;52.540;13.290;2023-04-24T09:53:03;3.70;;;1.03;;
6438;SDS011;3252;52.540;13.290;2023-04-24T09:55:13;3.70;;;0.90;;
6438;SDS011;3252;52.540;13.290;2023-04-24T09:57:17;1.70;;;0.80;;
6438;SDS011;3252;52.540;13.290;2023-04-24T09:59:19;1.77;;;0.80;;
6438;SDS011;3252;52.540;13.290;2023-04-24T10:01:29;1.00;;;0.60;;
6438;SDS011;3252;52.540;13.290;2023-04-24T10:03:32;1.10;;;0.70;;
6438;SDS011;3252;52.540;13.290;2023-04-24T10:05:36;3.30;;;1.10;;
6438;SDS011;3252;52.540;13.290;2023-04-24T10:07:41;2.67;;;0.83;;
6438;SDS011;3252;52.540;13.290;2023-04-24T10:09:45;1.70;;;0.80;;
6438;SDS011;3252;52.540;13.290;2023-04-24T10:11:47;1.90;;;0.90;;
6438;SDS011;3252;52.540;13.290;2023-04-24T10:13:51;1.03;;;0.70;;
6438;SDS011;3252;52.540;13.290;2023-04-24T10:15:53;1.50;;;0.80;;
6438;SDS011;3252;52.540;13.290;2023-04-24T10:17:57;2.05;;;0.90;;
6438;SDS011;3252;52.540;13.290;2023-04-24T10:20:00;2.13;;;0.50;;
6438;SDS011;3252;52.540;13.290;2023-04-24T10:22:02;1.80;;;0.90;;
6438;SDS011;3252;52.540;13.290;2023-04-24T10:24:07;1.65;;;0.70;;
6438;SDS011;3252;52.540;13.290;2023-04-24T10:26:10;2.43;;;0.90;;
6438;SDS011;3252;52.540;13.290;2023-04-24T10:28:17;1.97;;;0.83;;
6438;SDS011;3252;52.540;13.290;2023-04-24T10:30:21;2.77;;;1.10;;
6438;SDS011;3252;52.540;13.290;2023-04-24T10:32:24;2.60;;;0.83;;
6438;SDS011;3252;52.540;13.290;2023-04-24T10:34:26;3.60;;;1.03;;
6438;SDS011;3252;52.540;13.290;2023-04-24T10:36:30;2.57;;;0.80;;
6438;SDS011;3252;52.540;13.290;2023-04-24T10:38:33;1.53;;;0.70;;
6438;SDS011;3252;52.540;13.290;2023-04-24T10:40:38;2.43;;;0.63;;
6438;SDS011;3252;52.540;13.290;2023-04-24T10:42:40;2.67;;;1.00;;
6438;SDS011;3252;52.540;13.290;2023-04-24T10:44:44;2.30;;;0.87;;
6438;SDS011;3252;52.540;13.290;2023-04-24T10:46:52;2.73;;;0.90;;
6438;SDS011;3252;52.540;13.290;2023-04-24T10:48:56;1.47;;;0.83;;
6438;SDS011;3252;52.540;13.290;2023-04-24T10:50:59;0.80;;;0.40;;
6438;SDS011;3252;52.540;13.290;2023-04-24T10:53:05;2.53;;;0.73;;
6438;SDS011;3252;52.540;13.290;2023-04-24T10:55:09;2.20;;;0.97;;
6438;SDS011;3252;52.540;13.290;2023-04-24T10:57:27;7.13;;;5.87;;
6438;SDS011;3252;52.540;13.290;2023-04-24T10:59:34;2.30;;;1.37;;
6438;SDS011;3252;52.540;13.290;2023-04-24T11:01:38;4.67;;;1.70;;
6438;SDS011;3252;52.540;13.290;2023-04-24T11:03:40;1.57;;;0.90;;
6438;SDS011;3252;52.540;13.290;2023-04-24T11:05:56;2.97;;;0.80;;
6438;SDS011;3252;52.540;13.290;2023-04-24T11:08:12;2.77;;;0.80;;
6438;SDS011;3252;52.540;13.290;2023-04-24T11:10:24;4.63;;;1.00;;
6438;SDS011;3252;52.540;13.290;2023-04-24T11:12:28;2.47;;;0.90;;
6438;SDS011;3252;52.540;13.290;2023-04-24T11:14:31;2.67;;;0.80;;
6438;SDS011;3252;52.540;13.290;2023-04-24T11:17:02;1.70;;;0.90;;
6438;SDS011;3252;52.540;13.290;2023-04-24T11:19:06;3.87;;;0.90;;
6438;SDS011;3252;52.540;13.290;2023-04-24T11:21:10;1.73;;;0.90;;
6438;SDS011;3252;52.540;13.290;2023-04-24T11:23:13;1.67;;;0.77;;
6438;SDS011;3252;52.540;13.290;2023-04-24T11:25:16;1.60;;;0.90;;
6438;SDS011;3252;52.540;13.290;2023-04-24T11:27:19;3.63;;;0.83;;
6438;SDS011;3252;52.540;13.290;2023-04-24T11:29:24;1.43;;;0.63;;
6438;SDS011;3252;52.540;13.290;2023-04-24T11:31:40;1.60;;;0.73;;
6438;SDS011;3252;52.540;13.290;2023-04-24T11:33:48;2.10;;;0.70;;
6438;SDS011;3252;52.540;13.290;2023-04-24T11:35:51;2.70;;;1.10;;
6438;SDS011;3252;52.540;13.290;2023-04-24T11:37:53;2.93;;;0.83;;
6438;SDS011;3252;52.540;13.290;2023-04-24T11:39:56;1.57;;;0.90;;
6438;SDS011;3252;52.540;13.290;2023-04-24T11:42:01;1.47;;;0.73;;
6438;SDS011;3252;52.540;13.290;2023-04-24T11:44:07;3.67;;;1.07;;
6438;SDS011;3252;52.540;13.290;2023-04-24T11:46:11;1.83;;;0.77;;
6438;SDS011;3252;52.540;13.290;2023-04-24T11:48:19;1.73;;;0.80;;
6438;SDS011;3252;52.540;13.290;2023-04-24T11:50:22;4.43;;;0.90;;
6438;SDS011;3252;52.540;13.290;2023-04-24T11:52:26;2.67;;;0.90;;
6438;SDS011;3252;52.540;13.290;2023-04-24T11:54:28;2.13;;;0.90;;
6438;SDS011;3252;52.540;13.290;2023-04-24T11:56:30;3.03;;;1.27;;
6438;SDS011;3252;52.540;13.290;2023-04-24T11:58:34;5.63;;;1.00;;
6438;SDS011;3252;52.540;13.290;2023-04-24T12:00:37;2.30;;;0.97;;
6438;SDS011;3252;52.540;13.290;2023-04-24T12:02:41;6.60;;;0.90;;
6438;SDS011;3252;52.540;13.290;2023-04-24T12:04:43;6.30;;;1.10;;
6438;SDS011;3252;52.540;13.290;2023-04-24T12:07:00;6.00;;;1.10;;
6438;SDS011;3252;52.540;13.290;2023-04-24T12:09:04;3.47;;;1.27;;
6438;SDS011;3252;52.540;13.290;2023-04-24T12:11:07;2.60;;;1.00;;
6438;SDS011;3252;52.540;13.290;2023-04-24T12:13:09;3.77;;;0.80;;
6438;SDS011;3252;52.540;13.290;2023-04-24T12:15:12;2.97;;;1.20;;
6438;SDS011;3252;52.540;13.290;2023-04-24T12:17:17;3.27;;;0.90;;
6438;SDS011;3252;52.540;13.290;2023-04-24T12:19:21;2.13;;;1.10;;
6438;SDS011;3252;52.540;13.290;2023-04-24T12:21:24;3.23;;;1.00;;
6438;SDS011;3252;52.540;13.290;2023-04-24T12:23:35;1.90;;;0.80;;
6438;SDS011;3252;52.540;13.290;2023-04-24T12:25:38;1.77;;;0.80;;
6438;SDS011;3252;52.540;13.290;2023-04-24T12:27:41;2.70;;;0.83;;
6438;SDS011;3252;52.540;13.290;2023-04-24T12:29:50;1.20;;;0.70;;
6438;SDS011;3252;52.540;13.290;2023-04-24T12:31:53;1.73;;;0.63;;
6438;SDS011;3252;52.540;13.290;2023-04-24T12:33:55;2.27;;;0.90;;
6438;SDS011;3252;52.540;13.290;2023-04-24T12:36:00;3.57;;;0.70;;
6438;SDS011;3252;52.540;13.290;2023-04-24T12:38:06;3.00;;;0.93;;